createdAt,value
2022-12-25T00:00:51.499Z,8.29
2022-12-25T00:03:18.160Z,8.33
2022-12-25T00:05:44.796Z,8.34
2022-12-25T00:08:11.313Z,8.37
2022-12-25T00:10:44.682Z,8.40
2022-12-25T00:13:11.945Z,8.39
2022-12-25T00:15:41.510Z,8.38
2022-12-25T00:18:08.080Z,8.37
2022-12-25T00:20:34.553Z,8.35
2022-12-25T00:23:01.085Z,8.34
2022-12-25T00:25:27.664Z,8.27
2022-12-25T00:27:54.222Z,8.22
2022-12-25T00:30:20.887Z,8.28
2022-12-25T00:32:47.376Z,8.25
2022-12-25T00:35:13.976Z,8.31
2022-12-25T00:37:42.734Z,8.31
2022-12-25T00:40:12.612Z,8.25
2022-12-25T00:42:39.164Z,8.17
2022-12-25T00:45:06.152Z,8.25
2022-12-25T00:47:33.123Z,8.25
2022-12-25T00:49:59.716Z,8.22
2022-12-25T00:52:26.231Z,8.15
2022-12-25T00:54:52.843Z,8.15
2022-12-25T00:57:19.687Z,8.21
2022-12-25T00:59:46.138Z,8.17
2022-12-25T01:02:24.949Z,8.07
2022-12-25T01:04:54.441Z,8.05
2022-12-25T01:07:22.968Z,7.98
2022-12-25T01:10:08.120Z,7.99
2022-12-25T01:12:37.238Z,7.97
2022-12-25T01:15:07.967Z,8.02
2022-12-25T01:17:34.430Z,8.01
2022-12-25T01:20:01.132Z,7.96
2022-12-25T01:22:27.714Z,7.95
2022-12-25T01:24:54.226Z,7.88
2022-12-25T01:27:20.849Z,7.92
2022-12-25T01:29:47.537Z,7.82
2022-12-25T01:32:14.334Z,7.93
2022-12-25T01:34:41.007Z,7.95
2022-12-25T01:37:07.934Z,7.93
2022-12-25T01:39:34.883Z,7.93
2022-12-25T01:42:01.660Z,7.89
2022-12-25T01:44:37.869Z,7.89
2022-12-25T01:47:05.926Z,7.84
2022-12-25T01:49:36.407Z,7.77
2022-12-25T01:52:11.718Z,7.70
2022-12-25T01:54:43.567Z,7.73
2022-12-25T01:57:17.559Z,7.76
2022-12-25T01:59:44.695Z,7.72
2022-12-25T02:02:11.943Z,7.72
2022-12-25T02:04:46.679Z,7.73
2022-12-25T02:07:16.409Z,7.65
2022-12-25T02:09:43.894Z,7.71
2022-12-25T02:12:17.547Z,7.73
2022-12-25T02:14:49.727Z,7.76
2022-12-25T02:17:20.992Z,7.78
2022-12-25T02:20:06.759Z,7.72
2022-12-25T02:22:46.484Z,7.71
2022-12-25T02:25:25.129Z,7.64
2022-12-25T02:28:07.307Z,7.68
2022-12-25T02:30:42.953Z,7.72
2022-12-25T02:33:34.920Z,7.65
2022-12-25T02:36:07.404Z,7.75
2022-12-25T02:39:00.068Z,7.68
2022-12-25T02:41:29.782Z,7.73
2022-12-25T02:44:17.174Z,7.72
2022-12-25T02:47:05.357Z,7.67
2022-12-25T02:49:51.600Z,7.73
2022-12-25T02:52:39.539Z,7.76
2022-12-25T02:55:36.038Z,7.75
2022-12-25T02:58:31.673Z,7.83
2022-12-25T03:01:27.176Z,7.74
2022-12-25T03:04:16.025Z,7.84
2022-12-25T03:06:58.780Z,7.81
2022-12-25T03:09:48.491Z,7.87
2022-12-25T03:12:25.039Z,7.82
2022-12-25T03:15:16.006Z,7.81
2022-12-25T03:17:43.257Z,7.83
2022-12-25T03:20:29.022Z,7.78
2022-12-25T03:23:15.898Z,7.84
2022-12-25T03:26:01.215Z,7.84
2022-12-25T03:28:28.142Z,7.76
2022-12-25T03:31:16.084Z,7.71
2022-12-25T03:34:17.449Z,7.74
2022-12-25T03:36:52.441Z,7.63
2022-12-25T03:40:01.248Z,7.63
2022-12-25T03:43:03.674Z,7.56
2022-12-25T03:46:04.898Z,7.52
2022-12-25T03:48:54.582Z,7.54
2022-12-25T03:51:47.320Z,7.50
2022-12-25T03:54:35.871Z,7.50
2022-12-25T03:57:23.851Z,7.36
2022-12-25T04:00:09.133Z,7.33
2022-12-25T04:02:55.534Z,7.31
2022-12-25T04:05:41.034Z,7.31
2022-12-25T04:08:26.207Z,7.24
2022-12-25T04:11:11.385Z,7.26
2022-12-25T04:13:56.683Z,7.21
2022-12-25T04:16:41.779Z,7.10
2022-12-25T04:19:27.939Z,7.03
2022-12-25T04:22:13.009Z,6.98
2022-12-25T04:24:57.911Z,7.02
2022-12-25T04:27:43.208Z,6.94
2022-12-25T04:30:28.258Z,6.90
2022-12-25T04:33:17.805Z,6.81
2022-12-25T04:36:11.650Z,6.79
2022-12-25T04:38:41.073Z,6.82
2022-12-25T04:41:10.362Z,6.84
2022-12-25T04:43:37.355Z,6.76
2022-12-25T04:46:05.654Z,6.77
2022-12-25T04:48:34.839Z,6.92
2022-12-25T04:51:18.283Z,6.93
2022-12-25T04:53:45.814Z,6.96
2022-12-25T04:56:13.458Z,6.95
2022-12-25T04:58:40.922Z,6.99
2022-12-25T05:01:07.918Z,7.03
2022-12-25T05:03:35.607Z,7.01
2022-12-25T05:06:04.095Z,6.97
2022-12-25T05:08:32.709Z,6.89
2022-12-25T05:11:00.061Z,6.86
2022-12-25T05:13:29.233Z,6.81
2022-12-25T05:15:56.130Z,6.81
2022-12-25T05:18:23.187Z,6.82
2022-12-25T05:20:54.277Z,6.71
2022-12-25T05:23:21.671Z,6.64
2022-12-25T05:25:48.502Z,6.71
2022-12-25T05:28:15.450Z,6.63
2022-12-25T05:30:44.545Z,6.57
2022-12-25T05:33:11.472Z,6.48
2022-12-25T05:35:39.004Z,6.38
2022-12-25T05:38:09.801Z,6.34
2022-12-25T05:40:40.856Z,6.32
2022-12-25T05:43:08.188Z,6.31
2022-12-25T05:45:37.529Z,6.37
2022-12-25T05:48:07.036Z,6.33
2022-12-25T05:50:37.608Z,6.30
2022-12-25T05:53:09.075Z,6.28
2022-12-25T05:55:37.275Z,6.30
2022-12-25T05:58:05.303Z,6.34
2022-12-25T06:00:32.589Z,6.22
2022-12-25T06:03:00.017Z,6.21
2022-12-25T06:05:30.122Z,6.23
2022-12-25T06:07:59.866Z,6.18
2022-12-25T06:10:35.657Z,6.13
2022-12-25T06:13:05.093Z,6.09
2022-12-25T06:15:31.875Z,6.03
2022-12-25T06:18:01.657Z,6.07
2022-12-25T06:20:28.577Z,6.05
2022-12-25T06:22:59.388Z,6.02
2022-12-25T06:25:28.512Z,5.94
2022-12-25T06:27:55.643Z,5.86
2022-12-25T06:30:22.717Z,5.88
2022-12-25T06:32:49.524Z,5.97
2022-12-25T06:35:16.331Z,6.02
2022-12-25T06:37:43.153Z,6.05
2022-12-25T06:40:10.503Z,6.11
2022-12-25T06:42:37.244Z,6.19
2022-12-25T06:45:04.235Z,6.23
2022-12-25T06:47:34.094Z,6.27
2022-12-25T06:50:00.844Z,6.37
2022-12-25T06:52:27.651Z,6.41
2022-12-25T06:54:57.106Z,6.49
2022-12-25T06:57:24.052Z,6.54
2022-12-25T06:59:55.474Z,6.54
2022-12-25T07:02:24.489Z,6.48
2022-12-25T07:04:52.432Z,6.59
2022-12-25T07:07:22.411Z,6.58
2022-12-25T07:09:49.367Z,6.60
2022-12-25T07:12:26.498Z,6.68
2022-12-25T07:14:58.989Z,6.73
2022-12-25T07:17:28.560Z,6.69
2022-12-25T07:19:56.606Z,6.75
2022-12-25T07:22:26.334Z,6.75
2022-12-25T07:24:53.180Z,6.83
2022-12-25T07:27:19.855Z,6.86
2022-12-25T07:29:46.772Z,6.83
2022-12-25T07:32:13.616Z,6.80
2022-12-25T07:34:45.108Z,6.86
2022-12-25T07:37:12.048Z,6.88
2022-12-25T07:39:38.904Z,6.83
2022-12-25T07:42:06.816Z,6.90
2022-12-25T07:44:35.767Z,6.88
2022-12-25T07:47:02.621Z,6.88
2022-12-25T07:49:31.715Z,6.91
2022-12-25T07:51:58.572Z,6.96
2022-12-25T07:54:25.268Z,6.91
2022-12-25T07:56:53.304Z,6.84
2022-12-25T07:59:20.718Z,6.82
2022-12-25T08:01:50.497Z,6.78
2022-12-25T08:04:20.452Z,6.76
2022-12-25T08:06:47.296Z,6.75
2022-12-25T08:09:14.016Z,6.80
2022-12-25T08:11:46.692Z,6.77
2022-12-25T08:14:13.974Z,6.76
2022-12-25T08:16:42.334Z,6.70
2022-12-25T08:19:10.212Z,6.69
2022-12-25T08:21:39.367Z,6.77
2022-12-25T08:24:06.464Z,6.84
2022-12-25T08:26:33.208Z,6.87
2022-12-25T08:28:59.936Z,6.87
2022-12-25T08:31:28.838Z,6.92
2022-12-25T08:33:57.952Z,6.96
2022-12-25T08:36:25.060Z,6.90
2022-12-25T08:38:53.556Z,6.85
2022-12-25T08:41:23.758Z,6.89
2022-12-25T08:43:50.395Z,7.00
2022-12-25T08:46:17.320Z,7.06
2022-12-25T08:48:48.270Z,7.16
2022-12-25T08:51:19.017Z,7.33
2022-12-25T08:53:46.847Z,7.44
2022-12-25T08:56:14.765Z,7.55
2022-12-25T08:58:42.081Z,7.67
2022-12-25T09:01:12.903Z,7.76
2022-12-25T09:03:39.744Z,7.84
2022-12-25T09:06:08.725Z,7.92
2022-12-25T09:08:36.256Z,8.05
2022-12-25T09:11:07.303Z,8.08
2022-12-25T09:13:34.178Z,8.14
2022-12-25T09:16:06.022Z,8.22
2022-12-25T09:18:32.692Z,8.27
2022-12-25T09:21:05.741Z,8.31
2022-12-25T09:23:36.411Z,8.40
2022-12-25T09:26:05.104Z,8.51
2022-12-25T09:28:32.233Z,8.60
2022-12-25T09:30:59.107Z,8.59
2022-12-25T09:33:25.962Z,8.72
2022-12-25T09:35:58.377Z,8.79
2022-12-25T09:38:25.465Z,8.82
2022-12-25T09:41:21.250Z,8.88
2022-12-25T09:44:06.833Z,8.99
2022-12-25T09:46:41.130Z,9.08
2022-12-25T09:49:18.323Z,9.11
2022-12-25T09:51:48.597Z,9.13
2022-12-25T09:54:33.219Z,9.18
2022-12-25T09:57:10.945Z,9.15
2022-12-25T09:59:38.472Z,9.22
2022-12-25T10:02:26.522Z,9.32
2022-12-25T10:05:02.497Z,9.36
2022-12-25T10:07:47.729Z,9.44
2022-12-25T10:10:31.208Z,9.62
2022-12-25T10:13:30.500Z,9.73
2022-12-25T10:16:26.103Z,9.94
2022-12-25T10:19:25.824Z,9.99
2022-12-25T10:22:00.636Z,9.96
2022-12-25T10:24:35.618Z,9.94
2022-12-25T10:27:15.056Z,9.91
2022-12-25T10:29:46.496Z,9.95
2022-12-25T10:32:13.283Z,9.99
2022-12-25T10:34:41.973Z,9.98
2022-12-25T10:37:11.566Z,9.94
2022-12-25T10:39:46.362Z,9.85
2022-12-25T10:42:26.832Z,9.84
2022-12-25T10:44:58.516Z,9.91
2022-12-25T10:47:31.452Z,10.03
2022-12-25T10:49:59.201Z,10.14
2022-12-25T10:52:28.290Z,10.29
2022-12-25T10:54:55.983Z,10.41
2022-12-25T10:57:29.230Z,10.52
2022-12-25T10:59:57.071Z,10.56
2022-12-25T11:02:29.591Z,10.68
2022-12-25T11:05:05.847Z,10.74
2022-12-25T11:07:33.590Z,10.83
2022-12-25T11:10:05.944Z,10.94
2022-12-25T11:12:38.439Z,11.01
2022-12-25T11:15:27.834Z,11.03
2022-12-25T11:17:54.609Z,11.05
2022-12-25T11:20:25.118Z,11.07
2022-12-25T11:22:52.173Z,11.02
2022-12-25T11:25:27.990Z,11.09
2022-12-25T11:28:05.964Z,11.11
2022-12-25T11:30:35.074Z,11.11
2022-12-25T11:33:08.027Z,11.11
2022-12-25T11:35:47.745Z,11.22
2022-12-25T11:38:14.755Z,11.30
2022-12-25T11:40:51.731Z,11.36
2022-12-25T11:43:42.754Z,11.38
2022-12-25T11:46:21.096Z,11.44
2022-12-25T11:49:01.592Z,11.50
2022-12-25T11:51:35.577Z,11.45
2022-12-25T11:54:23.570Z,11.49
2022-12-25T11:56:50.857Z,11.56
2022-12-25T11:59:33.753Z,11.60
2022-12-25T12:02:14.716Z,11.66
2022-12-25T12:04:47.811Z,11.67
2022-12-25T12:07:32.373Z,11.64
2022-12-25T12:10:20.019Z,11.73
2022-12-25T12:13:09.383Z,11.72
2022-12-25T12:15:43.572Z,11.65
2022-12-25T12:18:23.593Z,11.61
2022-12-25T12:21:00.956Z,11.55
2022-12-25T12:23:30.405Z,11.49
2022-12-25T12:25:57.715Z,11.51
2022-12-25T12:28:32.134Z,11.50
2022-12-25T12:31:02.289Z,11.53
2022-12-25T12:33:36.768Z,11.61
2022-12-25T12:36:04.763Z,11.78
2022-12-25T12:38:33.361Z,12.00
2022-12-25T12:41:03.800Z,12.14
2022-12-25T12:43:35.299Z,12.13
2022-12-25T12:46:24.368Z,12.08
2022-12-25T12:49:20.047Z,12.05
2022-12-25T12:51:46.597Z,12.05
2022-12-25T12:54:23.653Z,12.04
2022-12-25T12:57:06.959Z,12.05
2022-12-25T12:59:39.419Z,12.08
2022-12-25T13:02:45.763Z,12.12
2022-12-25T13:05:21.494Z,12.09
2022-12-25T13:07:48.050Z,12.12
2022-12-25T13:10:24.279Z,12.03
2022-12-25T13:12:58.864Z,12.02
2022-12-25T13:15:27.177Z,11.98
2022-12-25T13:17:57.621Z,11.95
2022-12-25T13:20:40.719Z,11.88
2022-12-25T13:23:33.177Z,11.92
2022-12-25T13:26:02.978Z,11.83
2022-12-25T13:28:33.995Z,11.81
2022-12-25T13:31:15.971Z,11.82
2022-12-25T13:33:54.533Z,11.78
2022-12-25T13:36:21.403Z,11.82
2022-12-25T13:38:51.544Z,11.77
2022-12-25T13:41:41.776Z,11.79
2022-12-25T13:44:24.859Z,11.75
2022-12-25T13:46:52.128Z,11.63
2022-12-25T13:49:21.371Z,11.64
2022-12-25T13:51:50.461Z,11.65
2022-12-25T13:54:18.649Z,11.65
2022-12-25T13:56:49.745Z,11.61
2022-12-25T13:59:19.897Z,11.62
2022-12-25T14:01:47.687Z,11.51
2022-12-25T14:04:17.093Z,11.49
2022-12-25T14:06:44.258Z,11.43
2022-12-25T14:09:13.081Z,11.40
2022-12-25T14:11:45.642Z,11.40
2022-12-25T14:14:22.360Z,11.38
2022-12-25T14:16:57.623Z,11.31
2022-12-25T14:19:35.017Z,11.27
2022-12-25T14:22:21.955Z,11.19
2022-12-25T14:24:49.270Z,11.20
2022-12-25T14:27:28.177Z,11.15
2022-12-25T14:30:00.160Z,11.10
2022-12-25T14:32:30.729Z,11.11
2022-12-25T14:34:59.495Z,11.11
2022-12-25T14:37:29.508Z,11.08
2022-12-25T14:40:01.233Z,11.02
2022-12-25T14:42:31.750Z,10.91
2022-12-25T14:45:31.870Z,10.98
2022-12-25T14:48:17.502Z,10.86
2022-12-25T14:51:03.529Z,10.88
2022-12-25T14:53:40.126Z,10.85
2022-12-25T14:56:10.341Z,10.85
2022-12-25T14:58:47.172Z,10.80
2022-12-25T15:01:34.461Z,10.73
2022-12-25T15:04:12.287Z,10.71
2022-12-25T15:06:52.842Z,10.78
2022-12-25T15:09:19.591Z,10.72
2022-12-25T15:11:50.409Z,10.69
2022-12-25T15:14:17.686Z,10.60
2022-12-25T15:16:48.934Z,10.52
2022-12-25T15:19:36.863Z,10.56
2022-12-25T15:22:04.935Z,10.54
2022-12-25T15:24:32.126Z,10.48
2022-12-25T15:27:03.104Z,10.42
2022-12-25T15:30:07.697Z,10.44
2022-12-25T15:32:19.457Z,10.41
2022-12-25T15:34:50.063Z,10.38
2022-12-25T15:37:18.035Z,10.39
2022-12-25T15:39:45.321Z,10.41
2022-12-25T15:42:17.835Z,10.36
2022-12-25T15:44:45.139Z,10.31
2022-12-25T15:47:13.478Z,10.25
2022-12-25T15:49:40.895Z,10.28
2022-12-25T15:52:14.142Z,10.21
2022-12-25T15:54:43.485Z,10.14
2022-12-25T15:57:22.207Z,10.19
2022-12-25T15:59:49.234Z,10.11
2022-12-25T16:02:20.628Z,10.12
2022-12-25T16:04:48.939Z,10.11
2022-12-25T16:07:19.255Z,10.14
2022-12-25T16:09:46.207Z,10.14
2022-12-25T16:12:12.954Z,10.17
2022-12-25T16:14:39.853Z,10.19
2022-12-25T16:17:07.182Z,10.17
2022-12-25T16:19:33.919Z,10.15
2022-12-25T16:22:00.828Z,10.00
2022-12-25T16:24:27.569Z,9.92
2022-12-25T16:26:54.397Z,9.95
2022-12-25T16:29:21.332Z,9.96
2022-12-25T16:31:50.579Z,9.90
2022-12-25T16:34:17.431Z,9.88
2022-12-25T16:36:44.345Z,9.89
2022-12-25T16:39:11.303Z,9.78
2022-12-25T16:41:38.252Z,9.75
2022-12-25T16:44:15.397Z,9.73
2022-12-25T16:46:45.368Z,9.74
2022-12-25T16:49:12.154Z,9.82
2022-12-25T16:51:38.829Z,9.81
2022-12-25T16:54:05.908Z,9.84
2022-12-25T16:56:36.663Z,9.89
2022-12-25T16:59:06.511Z,9.86
2022-12-25T17:01:34.228Z,9.75
2022-12-25T17:04:08.607Z,9.73
2022-12-25T17:06:43.171Z,9.78
2022-12-25T17:09:10.697Z,9.73
2022-12-25T17:11:37.492Z,9.67
2022-12-25T17:14:04.657Z,9.69
2022-12-25T17:16:37.781Z,9.70
2022-12-25T17:19:08.213Z,9.67
2022-12-25T17:21:40.964Z,9.75
2022-12-25T17:24:07.973Z,9.72
2022-12-25T17:26:58.494Z,9.70
2022-12-25T17:29:25.263Z,9.70
2022-12-25T17:31:52.494Z,9.56
2022-12-25T17:34:20.100Z,9.57
2022-12-25T17:36:47.626Z,9.55
2022-12-25T17:39:14.397Z,9.49
2022-12-25T17:41:41.119Z,9.40
2022-12-25T17:44:09.000Z,9.45
2022-12-25T17:46:35.998Z,9.41
2022-12-25T17:49:03.185Z,9.37
2022-12-25T17:51:31.106Z,9.37
2022-12-25T17:54:03.109Z,9.41
2022-12-25T17:56:30.165Z,9.38
2022-12-25T17:59:00.010Z,9.34
2022-12-25T18:01:28.934Z,9.36
2022-12-25T18:04:03.511Z,9.33
2022-12-25T18:06:33.972Z,9.31
2022-12-25T18:09:00.642Z,9.28
2022-12-25T18:11:32.539Z,9.30
2022-12-25T18:14:02.169Z,9.37
2022-12-25T18:16:31.415Z,9.29
2022-12-25T18:19:04.124Z,9.28
2022-12-25T18:21:33.571Z,9.24
2022-12-25T18:24:06.022Z,9.25
2022-12-25T18:26:33.286Z,9.24
2022-12-25T18:29:00.517Z,9.22
2022-12-25T18:31:30.669Z,9.29
2022-12-25T18:33:58.847Z,9.28
2022-12-25T18:36:27.574Z,9.29
2022-12-25T18:38:55.315Z,9.28
2022-12-25T18:41:22.677Z,9.32
2022-12-25T18:43:52.456Z,9.34
2022-12-25T18:46:25.171Z,9.26
2022-12-25T18:48:54.713Z,9.31
2022-12-25T18:51:21.557Z,9.22
2022-12-25T18:53:48.405Z,9.19
2022-12-25T18:56:18.164Z,9.10
2022-12-25T18:58:47.067Z,9.03
2022-12-25T19:01:23.783Z,9.02
2022-12-25T19:03:53.128Z,8.92
2022-12-25T19:06:28.157Z,8.82
2022-12-25T19:08:55.881Z,8.92
2022-12-25T19:11:23.101Z,8.87
2022-12-25T19:13:55.311Z,8.88
2022-12-25T19:16:25.567Z,8.84
2022-12-25T19:19:11.957Z,8.74
2022-12-25T19:21:43.932Z,8.80
2022-12-25T19:24:10.554Z,8.79
2022-12-25T19:26:37.769Z,8.79
2022-12-25T19:29:04.523Z,8.82
2022-12-25T19:31:31.519Z,8.70
2022-12-25T19:33:58.244Z,8.77
2022-12-25T19:36:27.893Z,8.74
2022-12-25T19:38:54.818Z,8.71
2022-12-25T19:41:24.688Z,8.66
2022-12-25T19:43:53.552Z,8.58
2022-12-25T19:46:28.138Z,8.58
2022-12-25T19:48:55.624Z,8.63
2022-12-25T19:51:25.696Z,8.56
2022-12-25T19:53:56.240Z,8.61
2022-12-25T19:56:24.059Z,8.54
2022-12-25T19:58:51.016Z,8.45
2022-12-25T20:01:20.575Z,8.39
2022-12-25T20:03:49.120Z,8.39
2022-12-25T20:06:31.077Z,8.44
2022-12-25T20:09:01.708Z,8.47
2022-12-25T20:11:29.391Z,8.35
2022-12-25T20:13:56.972Z,8.31
2022-12-25T20:16:30.489Z,8.27
2022-12-25T20:19:00.868Z,8.22
2022-12-25T20:21:30.120Z,8.25
2022-12-25T20:23:57.756Z,8.31
2022-12-25T20:26:29.734Z,8.30
2022-12-25T20:28:58.547Z,8.34
2022-12-25T20:31:39.692Z,8.31
2022-12-25T20:34:10.236Z,8.30
2022-12-25T20:36:38.242Z,8.40
2022-12-25T20:39:09.477Z,8.39
2022-12-25T20:41:37.445Z,8.35
2022-12-25T20:44:06.438Z,8.30
2022-12-25T20:46:33.433Z,8.29
2022-12-25T20:49:01.952Z,8.25
2022-12-25T20:51:31.846Z,8.34
2022-12-25T20:54:01.106Z,8.37
2022-12-25T20:56:29.103Z,8.42
2022-12-25T20:58:58.161Z,8.46
2022-12-25T21:01:25.643Z,8.48
2022-12-25T21:03:55.352Z,8.49
2022-12-25T21:06:23.263Z,8.48
2022-12-25T21:08:52.070Z,8.38
2022-12-25T21:11:18.815Z,8.35
2022-12-25T21:13:46.915Z,8.29
2022-12-25T21:16:22.227Z,8.33
2022-12-25T21:18:52.236Z,8.29
2022-12-25T21:21:22.084Z,8.21
2022-12-25T21:23:48.739Z,8.06
2022-12-25T21:26:28.575Z,8.07
2022-12-25T21:28:58.096Z,8.07
2022-12-25T21:31:25.573Z,8.06
2022-12-25T21:33:54.042Z,8.07
2022-12-25T21:36:31.051Z,8.07
2022-12-25T21:39:06.205Z,8.14
2022-12-25T21:41:35.569Z,8.11
2022-12-25T21:44:06.378Z,8.15
2022-12-25T21:46:35.680Z,8.00
2022-12-25T21:49:02.511Z,8.08
2022-12-25T21:51:51.910Z,8.08
2022-12-25T21:54:24.300Z,8.08
2022-12-25T21:56:51.116Z,8.05
2022-12-25T21:59:20.990Z,8.08
2022-12-25T22:01:51.885Z,8.06
2022-12-25T22:04:21.258Z,7.97
2022-12-25T22:07:12.731Z,7.99
2022-12-25T22:09:39.673Z,7.88
2022-12-25T22:12:33.914Z,7.95
2022-12-25T22:15:46.095Z,7.87
2022-12-25T22:18:33.880Z,7.88
2022-12-25T22:21:03.318Z,7.84
2022-12-25T22:23:30.091Z,7.78
2022-12-25T22:25:56.961Z,7.82
2022-12-25T22:28:27.990Z,7.82
2022-12-25T22:30:57.990Z,7.79
2022-12-25T22:33:27.369Z,7.84
2022-12-25T22:36:01.970Z,7.89
2022-12-25T22:38:28.810Z,7.90
2022-12-25T22:41:00.056Z,7.85
2022-12-25T22:44:06.398Z,7.81
2022-12-25T22:46:15.970Z,7.87
2022-12-25T22:48:45.627Z,7.81
2022-12-25T22:51:17.370Z,7.89
2022-12-25T22:53:49.103Z,7.96
2022-12-25T22:56:19.422Z,7.92
2022-12-25T22:58:47.575Z,7.95
2022-12-25T23:01:14.390Z,7.91
2022-12-25T23:03:43.123Z,7.99
2022-12-25T23:06:10.244Z,7.91
2022-12-25T23:08:39.072Z,8.03
2022-12-25T23:11:06.133Z,8.12
2022-12-25T23:13:51.382Z,8.10
2022-12-25T23:16:18.349Z,8.20
2022-12-25T23:19:04.059Z,8.28
2022-12-25T23:21:51.830Z,8.24
2022-12-25T23:24:37.210Z,8.19
2022-12-25T23:27:04.404Z,8.23
2022-12-25T23:29:37.239Z,8.29
2022-12-25T23:32:18.558Z,8.30
2022-12-25T23:34:45.901Z,8.26
2022-12-25T23:37:12.698Z,8.31
2022-12-25T23:39:39.360Z,8.31
2022-12-25T23:42:08.825Z,8.29
2022-12-25T23:44:35.848Z,8.34
2022-12-25T23:47:03.106Z,8.37
2022-12-25T23:49:33.143Z,8.38
2022-12-25T23:52:00.192Z,8.37
2022-12-25T23:54:31.563Z,8.34
2022-12-25T23:56:59.187Z,8.34
2022-12-25T23:59:29.085Z,8.42
